sensor_id;sensor_type;location;lat;lon;timestamp;P1;durP1;ratioP1;P2;durP2;ratioP2
32329;SDS011;18807;52.434;13.238;2023-02-28T00:00:56;3.65;;;2.63;;
32329;SDS011;18807;52.434;13.238;2023-02-28T00:08:31;4.78;;;2.60;;
32329;SDS011;18807;52.434;13.238;2023-02-28T00:16:06;6.10;;;2.58;;
32329;SDS011;18807;52.434;13.238;2023-02-28T00:23:44;4.15;;;2.33;;
32329;SDS011;18807;52.434;13.238;2023-02-28T00:31:18;7.18;;;2.65;;
32329;SDS011;18807;52.434;13.238;2023-02-28T00:38:54;5.32;;;2.55;;
32329;SDS011;18807;52.434;13.238;2023-02-28T00:46:28;5.00;;;2.45;;
32329;SDS011;18807;52.434;13.238;2023-02-28T00:54:03;5.15;;;2.90;;
32329;SDS011;18807;52.434;13.238;2023-02-28T01:01:38;6.18;;;2.20;;
32329;SDS011;18807;52.434;13.238;2023-02-28T01:09:13;4.18;;;2.42;;
32329;SDS011;18807;52.434;13.238;2023-02-28T01:16:47;3.95;;;2.50;;
32329;SDS011;18807;52.434;13.238;2023-02-28T01:24:23;4.90;;;3.05;;
32329;SDS011;18807;52.434;13.238;2023-02-28T01:31:57;4.18;;;2.85;;
32329;SDS011;18807;52.434;13.238;2023-02-28T01:39:33;4.82;;;2.30;;
32329;SDS011;18807;52.434;13.238;2023-02-28T01:47:07;3.38;;;2.40;;
32329;SDS011;18807;52.434;13.238;2023-02-28T01:54:43;4.32;;;3.03;;
32329;SDS011;18807;52.434;13.238;2023-02-28T02:02:22;7.32;;;2.33;;
32329;SDS011;18807;52.434;13.238;2023-02-28T02:10:04;6.72;;;2.88;;
32329;SDS011;18807;52.434;13.238;2023-02-28T02:17:41;3.40;;;2.70;;
32329;SDS011;18807;52.434;13.238;2023-02-28T02:25:22;5.50;;;2.83;;
32329;SDS011;18807;52.434;13.238;2023-02-28T02:41:37;4.45;;;3.03;;
32329;SDS011;18807;52.434;13.238;2023-02-28T02:49:15;5.70;;;2.65;;
32329;SDS011;18807;52.434;13.238;2023-02-28T02:56:56;4.40;;;2.92;;
32329;SDS011;18807;52.434;13.238;2023-02-28T03:04:33;5.63;;;2.85;;
32329;SDS011;18807;52.434;13.238;2023-02-28T03:12:15;5.63;;;3.13;;
32329;SDS011;18807;52.434;13.238;2023-02-28T03:19:51;5.93;;;3.20;;
32329;SDS011;18807;52.434;13.238;2023-02-28T03:35:51;4.72;;;2.63;;
32329;SDS011;18807;52.434;13.238;2023-02-28T03:43:31;4.22;;;2.70;;
32329;SDS011;18807;52.434;13.238;2023-02-28T03:51:11;4.13;;;2.60;;
32329;SDS011;18807;52.434;13.238;2023-02-28T03:58:54;4.25;;;2.65;;
32329;SDS011;18807;52.434;13.238;2023-02-28T04:06:32;9.50;;;3.03;;
32329;SDS011;18807;52.434;13.238;2023-02-28T04:14:09;4.50;;;2.70;;
32329;SDS011;18807;52.434;13.238;2023-02-28T04:21:45;5.07;;;2.72;;
32329;SDS011;18807;52.434;13.238;2023-02-28T04:29:22;4.20;;;2.92;;
32329;SDS011;18807;52.434;13.238;2023-02-28T04:36:58;4.22;;;3.17;;
32329;SDS011;18807;52.434;13.238;2023-02-28T04:44:50;8.73;;;3.50;;
32329;SDS011;18807;52.434;13.238;2023-02-28T04:52:24;4.13;;;2.55;;
32329;SDS011;18807;52.434;13.238;2023-02-28T05:07:32;6.40;;;2.70;;
32329;SDS011;18807;52.434;13.238;2023-02-28T05:22:46;3.90;;;2.92;;
32329;SDS011;18807;52.434;13.238;2023-02-28T05:30:22;7.18;;;3.47;;
32329;SDS011;18807;52.434;13.238;2023-02-28T05:37:56;5.28;;;3.20;;
32329;SDS011;18807;52.434;13.238;2023-02-28T05:53:05;7.00;;;4.38;;
32329;SDS011;18807;52.434;13.238;2023-02-28T06:00:40;14.15;;;5.97;;
32329;SDS011;18807;52.434;13.238;2023-02-28T06:08:14;15.40;;;5.78;;
32329;SDS011;18807;52.434;13.238;2023-02-28T06:23:23;14.70;;;5.25;;
32329;SDS011;18807;52.434;13.238;2023-02-28T06:30:59;9.23;;;4.25;;
32329;SDS011;18807;52.434;13.238;2023-02-28T06:38:33;7.68;;;4.82;;
32329;SDS011;18807;52.434;13.238;2023-02-28T06:46:11;9.27;;;5.15;;
32329;SDS011;18807;52.434;13.238;2023-02-28T06:53:46;10.50;;;4.57;;
32329;SDS011;18807;52.434;13.238;2023-02-28T07:01:22;7.63;;;3.97;;
32329;SDS011;18807;52.434;13.238;2023-02-28T07:08:56;9.05;;;4.40;;
32329;SDS011;18807;52.434;13.238;2023-02-28T07:16:32;9.48;;;4.80;;
32329;SDS011;18807;52.434;13.238;2023-02-28T07:24:06;14.40;;;4.63;;
32329;SDS011;18807;52.434;13.238;2023-02-28T07:31:42;10.57;;;5.13;;
32329;SDS011;18807;52.434;13.238;2023-02-28T07:39:16;9.35;;;4.97;;
32329;SDS011;18807;52.434;13.238;2023-02-28T07:46:51;8.48;;;6.10;;
32329;SDS011;18807;52.434;13.238;2023-02-28T07:54:26;11.50;;;5.78;;
32329;SDS011;18807;52.434;13.238;2023-02-28T08:02:01;8.98;;;5.43;;
32329;SDS011;18807;52.434;13.238;2023-02-28T08:09:53;8.37;;;5.00;;
32329;SDS011;18807;52.434;13.238;2023-02-28T08:17:29;6.15;;;3.83;;
32329;SDS011;18807;52.434;13.238;2023-02-28T08:25:06;5.70;;;3.55;;
32329;SDS011;18807;52.434;13.238;2023-02-28T08:32:42;4.35;;;2.70;;
32329;SDS011;18807;52.434;13.238;2023-02-28T08:40:17;8.95;;;3.13;;
32329;SDS011;18807;52.434;13.238;2023-02-28T08:47:52;4.47;;;1.40;;
32329;SDS011;18807;52.434;13.238;2023-02-28T08:55:27;5.70;;;2.20;;
32329;SDS011;18807;52.434;13.238;2023-02-28T09:03:03;3.47;;;1.50;;
32329;SDS011;18807;52.434;13.238;2023-02-28T09:10:37;2.28;;;1.52;;
32329;SDS011;18807;52.434;13.238;2023-02-28T09:18:12;3.97;;;1.70;;
32329;SDS011;18807;52.434;13.238;2023-02-28T09:25:47;3.75;;;1.67;;
32329;SDS011;18807;52.434;13.238;2023-02-28T09:33:23;2.72;;;1.63;;
32329;SDS011;18807;52.434;13.238;2023-02-28T09:40:58;5.05;;;2.10;;
32329;SDS011;18807;52.434;13.238;2023-02-28T09:48:36;3.80;;;2.05;;
32329;SDS011;18807;52.434;13.238;2023-02-28T09:56:15;4.80;;;2.55;;
32329;SDS011;18807;52.434;13.238;2023-02-28T10:04:00;1.80;;;1.50;;
32329;SDS011;18807;52.434;13.238;2023-02-28T10:11:41;3.53;;;1.58;;
32329;SDS011;18807;52.434;13.238;2023-02-28T10:19:21;2.45;;;1.65;;
32329;SDS011;18807;52.434;13.238;2023-02-28T10:27:00;2.35;;;1.52;;
32329;SDS011;18807;52.434;13.238;2023-02-28T10:34:39;4.47;;;2.00;;
32329;SDS011;18807;52.434;13.238;2023-02-28T10:42:21;4.82;;;2.20;;
32329;SDS011;18807;52.434;13.238;2023-02-28T10:49:59;5.25;;;1.60;;
32329;SDS011;18807;52.434;13.238;2023-02-28T10:57:52;2.58;;;1.33;;
32329;SDS011;18807;52.434;13.238;2023-02-28T11:05:28;4.53;;;2.10;;
32329;SDS011;18807;52.434;13.238;2023-02-28T11:13:03;2.70;;;1.40;;
32329;SDS011;18807;52.434;13.238;2023-02-28T11:20:40;2.53;;;1.52;;
32329;SDS011;18807;52.434;13.238;2023-02-28T11:28:23;7.78;;;2.35;;
32329;SDS011;18807;52.434;13.238;2023-02-28T11:36:03;3.88;;;2.17;;
32329;SDS011;18807;52.434;13.238;2023-02-28T11:43:47;6.30;;;2.25;;
32329;SDS011;18807;52.434;13.238;2023-02-28T11:51:32;3.63;;;2.05;;
32329;SDS011;18807;52.434;13.238;2023-02-28T11:59:16;5.72;;;1.98;;
32329;SDS011;18807;52.434;13.238;2023-02-28T12:07:03;4.85;;;1.92;;
32329;SDS011;18807;52.434;13.238;2023-02-28T12:23:19;5.40;;;2.83;;
32329;SDS011;18807;52.434;13.238;2023-02-28T12:31:01;5.28;;;2.78;;
32329;SDS011;18807;52.434;13.238;2023-02-28T12:38:44;4.53;;;2.17;;
32329;SDS011;18807;52.434;13.238;2023-02-28T12:46:21;4.38;;;2.40;;
32329;SDS011;18807;52.434;13.238;2023-02-28T12:54:02;3.78;;;2.30;;
32329;SDS011;18807;52.434;13.238;2023-02-28T13:09:53;4.72;;;2.33;;
32329;SDS011;18807;52.434;13.238;2023-02-28T13:17:28;5.40;;;3.08;;
32329;SDS011;18807;52.434;13.238;2023-02-28T13:25:04;5.47;;;2.90;;
32329;SDS011;18807;52.434;13.238;2023-02-28T13:33:28;4.80;;;2.60;;
32329;SDS011;18807;52.434;13.238;2023-02-28T13:49:23;9.15;;;3.50;;
32329;SDS011;18807;52.434;13.238;2023-02-28T13:57:04;4.50;;;2.22;;
32329;SDS011;18807;52.434;13.238;2023-02-28T14:05:05;6.72;;;3.15;;
32329;SDS011;18807;52.434;13.238;2023-02-28T14:12:53;7.45;;;2.83;;
32329;SDS011;18807;52.434;13.238;2023-02-28T14:20:29;5.27;;;2.47;;
32329;SDS011;18807;52.434;13.238;2023-02-28T14:28:11;5.95;;;2.63;;
32329;SDS011;18807;52.434;13.238;2023-02-28T14:36:00;3.33;;;2.20;;
32329;SDS011;18807;52.434;13.238;2023-02-28T14:43:47;6.43;;;2.28;;
32329;SDS011;18807;52.434;13.238;2023-02-28T14:51:22;6.28;;;2.78;;
32329;SDS011;18807;52.434;13.238;2023-02-28T14:58:59;4.40;;;2.38;;
32329;SDS011;18807;52.434;13.238;2023-02-28T15:06:33;6.40;;;2.67;;
32329;SDS011;18807;52.434;13.238;2023-02-28T15:14:12;4.20;;;2.33;;
32329;SDS011;18807;52.434;13.238;2023-02-28T15:21:52;7.30;;;2.47;;
32329;SDS011;18807;52.434;13.238;2023-02-28T15:29:33;5.25;;;2.70;;
32329;SDS011;18807;52.434;13.238;2023-02-28T15:37:29;7.35;;;3.72;;
32329;SDS011;18807;52.434;13.238;2023-02-28T15:53:11;4.83;;;2.67;;
32329;SDS011;18807;52.434;13.238;2023-02-28T16:00:59;6.10;;;2.55;;
32329;SDS011;18807;52.434;13.238;2023-02-28T16:08:34;5.38;;;2.67;;
32329;SDS011;18807;52.434;13.238;2023-02-28T16:16:09;3.70;;;2.50;;
32329;SDS011;18807;52.434;13.238;2023-02-28T16:23:49;6.50;;;2.78;;
32329;SDS011;18807;52.434;13.238;2023-02-28T16:31:24;4.67;;;2.27;;
32329;SDS011;18807;52.434;13.238;2023-02-28T16:38:59;3.65;;;2.40;;
32329;SDS011;18807;52.434;13.238;2023-02-28T16:46:35;4.47;;;2.90;;
32329;SDS011;18807;52.434;13.238;2023-02-28T16:54:10;6.15;;;3.05;;
32329;SDS011;18807;52.434;13.238;2023-02-28T17:01:45;3.90;;;2.27;;
32329;SDS011;18807;52.434;13.238;2023-02-28T17:09:20;4.80;;;2.65;;
32329;SDS011;18807;52.434;13.238;2023-02-28T17:17:17;5.25;;;2.50;;
32329;SDS011;18807;52.434;13.238;2023-02-28T17:24:53;4.80;;;2.58;;
32329;SDS011;18807;52.434;13.238;2023-02-28T17:32:31;5.60;;;3.10;;
32329;SDS011;18807;52.434;13.238;2023-02-28T17:40:05;8.20;;;4.25;;
32329;SDS011;18807;52.434;13.238;2023-02-28T17:47:42;7.75;;;3.67;;
32329;SDS011;18807;52.434;13.238;2023-02-28T17:55:19;6.63;;;3.25;;
32329;SDS011;18807;52.434;13.238;2023-02-28T18:02:54;8.23;;;3.50;;
32329;SDS011;18807;52.434;13.238;2023-02-28T18:10:28;5.82;;;2.85;;
32329;SDS011;18807;52.434;13.238;2023-02-28T18:18:06;5.30;;;3.25;;
32329;SDS011;18807;52.434;13.238;2023-02-28T18:25:40;7.35;;;3.67;;
32329;SDS011;18807;52.434;13.238;2023-02-28T18:33:33;8.95;;;3.63;;
32329;SDS011;18807;52.434;13.238;2023-02-28T18:41:08;9.05;;;5.53;;
32329;SDS011;18807;52.434;13.238;2023-02-28T18:48:43;7.78;;;4.90;;
32329;SDS011;18807;52.434;13.238;2023-02-28T18:56:19;10.07;;;4.60;;
32329;SDS011;18807;52.434;13.238;2023-02-28T19:04:13;9.57;;;4.85;;
32329;SDS011;18807;52.434;13.238;2023-02-28T19:11:47;12.23;;;6.90;;
32329;SDS011;18807;52.434;13.238;2023-02-28T19:19:23;13.20;;;6.90;;
32329;SDS011;18807;52.434;13.238;2023-02-28T19:26:57;12.80;;;8.00;;
32329;SDS011;18807;52.434;13.238;2023-02-28T19:34:33;13.77;;;7.55;;
32329;SDS011;18807;52.434;13.238;2023-02-28T19:42:07;13.68;;;8.00;;
32329;SDS011;18807;52.434;13.238;2023-02-28T19:49:43;11.52;;;6.97;;
32329;SDS011;18807;52.434;13.238;2023-02-28T19:57:17;12.32;;;7.63;;
32329;SDS011;18807;52.434;13.238;2023-02-28T20:04:52;13.27;;;7.43;;
32329;SDS011;18807;52.434;13.238;2023-02-28T20:12:31;15.02;;;7.20;;
32329;SDS011;18807;52.434;13.238;2023-02-28T20:20:08;15.90;;;7.68;;
32329;SDS011;18807;52.434;13.238;2023-02-28T20:27:43;13.32;;;7.50;;
32329;SDS011;18807;52.434;13.238;2023-02-28T20:35:19;11.57;;;6.25;;
32329;SDS011;18807;52.434;13.238;2023-02-28T20:42:54;13.77;;;6.45;;
32329;SDS011;18807;52.434;13.238;2023-02-28T20:50:30;10.95;;;6.20;;
32329;SDS011;18807;52.434;13.238;2023-02-28T20:58:04;14.15;;;7.57;;
32329;SDS011;18807;52.434;13.238;2023-02-28T21:05:39;13.82;;;6.53;;
32329;SDS011;18807;52.434;13.238;2023-02-28T21:13:30;14.18;;;7.82;;
32329;SDS011;18807;52.434;13.238;2023-02-28T21:21:06;15.27;;;8.73;;
32329;SDS011;18807;52.434;13.238;2023-02-28T21:28:41;13.68;;;7.15;;
32329;SDS011;18807;52.434;13.238;2023-02-28T21:36:18;13.63;;;6.38;;
32329;SDS011;18807;52.434;13.238;2023-02-28T21:43:54;11.30;;;6.07;;
32329;SDS011;18807;52.434;13.238;2023-02-28T21:51:30;11.07;;;5.75;;
32329;SDS011;18807;52.434;13.238;2023-02-28T21:59:04;8.88;;;4.82;;
32329;SDS011;18807;52.434;13.238;2023-02-28T22:06:43;13.05;;;6.07;;
32329;SDS011;18807;52.434;13.238;2023-02-28T22:14:17;10.10;;;6.45;;
32329;SDS011;18807;52.434;13.238;2023-02-28T22:37:02;13.38;;;5.45;;
32329;SDS011;18807;52.434;13.238;2023-02-28T22:44:36;14.73;;;6.22;;
32329;SDS011;18807;52.434;13.238;2023-02-28T22:52:11;13.30;;;5.55;;
32329;SDS011;18807;52.434;13.238;2023-02-28T22:59:45;12.70;;;5.20;;
32329;SDS011;18807;52.434;13.238;2023-02-28T23:07:20;8.50;;;4.85;;
32329;SDS011;18807;52.434;13.238;2023-02-28T23:14:55;14.90;;;5.63;;
32329;SDS011;18807;52.434;13.238;2023-02-28T23:22:30;9.63;;;5.18;;
32329;SDS011;18807;52.434;13.238;2023-02-28T23:30:05;8.55;;;4.20;;
32329;SDS011;18807;52.434;13.238;2023-02-28T23:37:42;10.93;;;5.00;;
32329;SDS011;18807;52.434;13.238;2023-02-28T23:45:16;9.02;;;5.07;;
32329;SDS011;18807;52.434;13.238;2023-02-28T23:52:52;10.13;;;5.00;;
